sensor_id;sensor_type;location;lat;lon;timestamp;P1;durP1;ratioP1;P2;durP2;ratioP2
13685;SDS011;6915;48.296;8.874;2023-06-22T02:03:05;10.73;;;6.35;;
13685;SDS011;6915;48.296;8.874;2023-06-22T02:05:36;7.97;;;5.70;;
13685;SDS011;6915;48.296;8.874;2023-06-22T02:08:09;10.18;;;5.88;;
13685;SDS011;6915;48.296;8.874;2023-06-22T02:10:43;10.25;;;5.05;;
13685;SDS011;6915;48.296;8.874;2023-06-22T02:13:13;7.63;;;5.68;;
13685;SDS011;6915;48.296;8.874;2023-06-22T02:15:43;7.50;;;5.55;;
13685;SDS011;6915;48.296;8.874;2023-06-22T02:18:13;8.88;;;5.70;;
13685;SDS011;6915;48.296;8.874;2023-06-22T02:20:42;6.45;;;5.38;;
13685;SDS011;6915;48.296;8.874;2023-06-22T02:23:11;8.60;;;5.28;;
13685;SDS011;6915;48.296;8.874;2023-06-22T02:25:39;9.20;;;5.28;;
13685;SDS011;6915;48.296;8.874;2023-06-22T02:28:09;8.00;;;5.40;;
13685;SDS011;6915;48.296;8.874;2023-06-22T02:30:39;8.48;;;5.25;;
13685;SDS011;6915;48.296;8.874;2023-06-22T02:33:07;12.07;;;6.00;;
13685;SDS011;6915;48.296;8.874;2023-06-22T02:35:39;13.00;;;6.35;;
13685;SDS011;6915;48.296;8.874;2023-06-22T02:38:10;10.52;;;5.20;;
13685;SDS011;6915;48.296;8.874;2023-06-22T02:40:39;9.68;;;6.03;;
13685;SDS011;6915;48.296;8.874;2023-06-22T02:43:08;8.35;;;5.45;;
13685;SDS011;6915;48.296;8.874;2023-06-22T02:45:37;9.95;;;6.07;;
13685;SDS011;6915;48.296;8.874;2023-06-22T02:48:06;12.55;;;6.00;;
13685;SDS011;6915;48.296;8.874;2023-06-22T02:50:34;10.80;;;5.90;;
13685;SDS011;6915;48.296;8.874;2023-06-22T02:53:04;8.10;;;5.55;;
13685;SDS011;6915;48.296;8.874;2023-06-22T02:55:33;7.00;;;5.80;;
13685;SDS011;6915;48.296;8.874;2023-06-22T02:58:01;14.93;;;6.70;;
13685;SDS011;6915;48.296;8.874;2023-06-22T03:00:30;12.05;;;6.38;;
13685;SDS011;6915;48.296;8.874;2023-06-22T03:02:59;10.43;;;6.82;;
13685;SDS011;6915;48.296;8.874;2023-06-22T03:05:28;12.40;;;5.97;;
13685;SDS011;6915;48.296;8.874;2023-06-22T03:07:57;12.93;;;6.32;;
13685;SDS011;6915;48.296;8.874;2023-06-22T03:10:28;14.27;;;6.38;;
13685;SDS011;6915;48.296;8.874;2023-06-22T03:12:57;8.15;;;5.97;;
13685;SDS011;6915;48.296;8.874;2023-06-22T03:15:25;12.07;;;6.30;;
13685;SDS011;6915;48.296;8.874;2023-06-22T03:17:56;11.13;;;6.50;;
13685;SDS011;6915;48.296;8.874;2023-06-22T03:20:25;11.23;;;6.30;;
13685;SDS011;6915;48.296;8.874;2023-06-22T03:22:58;10.20;;;6.30;;
13685;SDS011;6915;48.296;8.874;2023-06-22T03:25:28;12.65;;;6.38;;
13685;SDS011;6915;48.296;8.874;2023-06-22T03:27:58;13.65;;;6.97;;
13685;SDS011;6915;48.296;8.874;2023-06-22T03:30:27;9.82;;;6.57;;
13685;SDS011;6915;48.296;8.874;2023-06-22T03:32:56;10.88;;;6.68;;
13685;SDS011;6915;48.296;8.874;2023-06-22T03:35:26;9.60;;;6.57;;
13685;SDS011;6915;48.296;8.874;2023-06-22T03:37:54;15.98;;;7.20;;
13685;SDS011;6915;48.296;8.874;2023-06-22T03:43:25;14.15;;;6.78;;
13685;SDS011;6915;48.296;8.874;2023-06-22T03:45:55;12.00;;;6.50;;
13685;SDS011;6915;48.296;8.874;2023-06-22T03:48:55;9.55;;;6.20;;
13685;SDS011;6915;48.296;8.874;2023-06-22T03:51:28;10.90;;;6.65;;
13685;SDS011;6915;48.296;8.874;2023-06-22T03:55:07;11.15;;;6.97;;
13685;SDS011;6915;48.296;8.874;2023-06-22T03:57:44;11.02;;;6.78;;
13685;SDS011;6915;48.296;8.874;2023-06-22T04:00:14;8.25;;;6.60;;
13685;SDS011;6915;48.296;8.874;2023-06-22T04:02:43;10.00;;;6.85;;
13685;SDS011;6915;48.296;8.874;2023-06-22T04:31:05;10.73;;;7.10;;
13685;SDS011;6915;48.296;8.874;2023-06-22T04:33:34;7.85;;;6.55;;
13685;SDS011;6915;48.296;8.874;2023-06-22T04:36:03;8.30;;;6.30;;
13685;SDS011;6915;48.296;8.874;2023-06-22T04:38:32;10.50;;;6.70;;
13685;SDS011;6915;48.296;8.874;2023-06-22T04:41:00;9.70;;;6.15;;
13685;SDS011;6915;48.296;8.874;2023-06-22T04:43:29;10.40;;;6.53;;
13685;SDS011;6915;48.296;8.874;2023-06-22T04:45:57;8.45;;;7.07;;
13685;SDS011;6915;48.296;8.874;2023-06-22T04:48:30;11.30;;;7.13;;
13685;SDS011;6915;48.296;8.874;2023-06-22T04:50:58;10.90;;;6.90;;
13685;SDS011;6915;48.296;8.874;2023-06-22T04:53:29;8.85;;;7.70;;
13685;SDS011;6915;48.296;8.874;2023-06-22T04:55:58;11.40;;;6.57;;
13685;SDS011;6915;48.296;8.874;2023-06-22T04:58:29;8.75;;;6.22;;
13685;SDS011;6915;48.296;8.874;2023-06-22T05:00:58;11.18;;;6.80;;
13685;SDS011;6915;48.296;8.874;2023-06-22T05:03:30;10.00;;;6.80;;
13685;SDS011;6915;48.296;8.874;2023-06-22T05:06:01;7.53;;;6.43;;
13685;SDS011;6915;48.296;8.874;2023-06-22T05:08:32;11.45;;;7.80;;
13685;SDS011;6915;48.296;8.874;2023-06-22T05:11:01;11.43;;;7.50;;
13685;SDS011;6915;48.296;8.874;2023-06-22T05:13:30;11.63;;;7.40;;
13685;SDS011;6915;48.296;8.874;2023-06-22T05:15:59;8.00;;;7.20;;
13685;SDS011;6915;48.296;8.874;2023-06-22T05:18:29;11.27;;;8.60;;
13685;SDS011;6915;48.296;8.874;2023-06-22T05:20:58;12.02;;;8.95;;
13685;SDS011;6915;48.296;8.874;2023-06-22T05:23:28;12.43;;;8.45;;
13685;SDS011;6915;48.296;8.874;2023-06-22T05:33:43;10.63;;;9.48;;
13685;SDS011;6915;48.296;8.874;2023-06-22T05:36:12;10.77;;;8.90;;
13685;SDS011;6915;48.296;8.874;2023-06-22T05:38:43;9.10;;;8.20;;
13685;SDS011;6915;48.296;8.874;2023-06-22T05:41:16;12.73;;;9.35;;
13685;SDS011;6915;48.296;8.874;2023-06-22T05:43:50;10.85;;;8.77;;
13685;SDS011;6915;48.296;8.874;2023-06-22T05:48:55;14.98;;;9.00;;
13685;SDS011;6915;48.296;8.874;2023-06-22T05:51:23;9.80;;;8.50;;
13685;SDS011;6915;48.296;8.874;2023-06-22T05:53:52;9.88;;;8.77;;
13685;SDS011;6915;48.296;8.874;2023-06-22T05:56:21;10.77;;;8.65;;
13685;SDS011;6915;48.296;8.874;2023-06-22T05:58:50;12.88;;;9.48;;
13685;SDS011;6915;48.296;8.874;2023-06-22T06:01:18;10.70;;;9.60;;
13685;SDS011;6915;48.296;8.874;2023-06-22T06:03:47;12.23;;;9.85;;
13685;SDS011;6915;48.296;8.874;2023-06-22T06:06:19;11.07;;;9.65;;
13685;SDS011;6915;48.296;8.874;2023-06-22T06:08:53;10.57;;;9.48;;
13685;SDS011;6915;48.296;8.874;2023-06-22T06:11:23;10.88;;;9.80;;
13685;SDS011;6915;48.296;8.874;2023-06-22T06:13:52;14.52;;;11.00;;
13685;SDS011;6915;48.296;8.874;2023-06-22T06:16:21;11.50;;;9.98;;
13685;SDS011;6915;48.296;8.874;2023-06-22T06:18:51;12.05;;;9.65;;
13685;SDS011;6915;48.296;8.874;2023-06-22T06:21:22;12.68;;;10.57;;
13685;SDS011;6915;48.296;8.874;2023-06-22T06:23:51;12.43;;;9.70;;
13685;SDS011;6915;48.296;8.874;2023-06-22T06:26:20;10.18;;;8.82;;
13685;SDS011;6915;48.296;8.874;2023-06-22T06:28:55;13.07;;;9.63;;
13685;SDS011;6915;48.296;8.874;2023-06-22T06:31:25;11.80;;;8.60;;
13685;SDS011;6915;48.296;8.874;2023-06-22T06:33:54;11.00;;;8.97;;
13685;SDS011;6915;48.296;8.874;2023-06-22T06:36:24;14.20;;;8.25;;
13685;SDS011;6915;48.296;8.874;2023-06-22T06:38:53;11.50;;;8.70;;
13685;SDS011;6915;48.296;8.874;2023-06-22T06:41:22;12.20;;;8.60;;
13685;SDS011;6915;48.296;8.874;2023-06-22T06:43:51;12.10;;;9.65;;
13685;SDS011;6915;48.296;8.874;2023-06-22T06:46:20;11.88;;;8.07;;
13685;SDS011;6915;48.296;8.874;2023-06-22T06:48:49;10.05;;;7.88;;
13685;SDS011;6915;48.296;8.874;2023-06-22T06:51:18;10.52;;;7.68;;
13685;SDS011;6915;48.296;8.874;2023-06-22T06:53:54;13.60;;;8.10;;
13685;SDS011;6915;48.296;8.874;2023-06-22T06:56:23;11.45;;;7.78;;
13685;SDS011;6915;48.296;8.874;2023-06-22T06:58:52;9.75;;;7.15;;
13685;SDS011;6915;48.296;8.874;2023-06-22T07:01:21;12.27;;;8.10;;
13685;SDS011;6915;48.296;8.874;2023-06-22T07:03:50;12.50;;;7.88;;
13685;SDS011;6915;48.296;8.874;2023-06-22T07:06:18;12.43;;;8.43;;
13685;SDS011;6915;48.296;8.874;2023-06-22T07:08:47;9.80;;;7.53;;
13685;SDS011;6915;48.296;8.874;2023-06-22T07:11:18;14.93;;;8.18;;
13685;SDS011;6915;48.296;8.874;2023-06-22T07:13:47;9.82;;;7.95;;
13685;SDS011;6915;48.296;8.874;2023-06-22T07:16:16;10.90;;;7.38;;
13685;SDS011;6915;48.296;8.874;2023-06-22T07:18:45;12.00;;;7.68;;
13685;SDS011;6915;48.296;8.874;2023-06-22T07:21:14;7.93;;;5.90;;
13685;SDS011;6915;48.296;8.874;2023-06-22T07:23:43;11.40;;;6.63;;
13685;SDS011;6915;48.296;8.874;2023-06-22T07:26:12;10.77;;;6.75;;
13685;SDS011;6915;48.296;8.874;2023-06-22T07:28:42;11.02;;;6.40;;
13685;SDS011;6915;48.296;8.874;2023-06-22T07:31:12;7.95;;;6.20;;
13685;SDS011;6915;48.296;8.874;2023-06-22T07:33:41;6.95;;;6.25;;
13685;SDS011;6915;48.296;8.874;2023-06-22T07:36:10;8.55;;;6.50;;
13685;SDS011;6915;48.296;8.874;2023-06-22T07:38:39;7.15;;;5.75;;
13685;SDS011;6915;48.296;8.874;2023-06-22T07:41:08;8.15;;;6.05;;
13685;SDS011;6915;48.296;8.874;2023-06-22T07:43:37;13.18;;;6.30;;
13685;SDS011;6915;48.296;8.874;2023-06-22T07:46:08;7.85;;;6.25;;
13685;SDS011;6915;48.296;8.874;2023-06-22T07:48:37;9.27;;;5.90;;
13685;SDS011;6915;48.296;8.874;2023-06-22T07:51:07;8.70;;;6.57;;
13685;SDS011;6915;48.296;8.874;2023-06-22T07:53:37;8.00;;;5.97;;
13685;SDS011;6915;48.296;8.874;2023-06-22T07:56:05;10.00;;;5.72;;
13685;SDS011;6915;48.296;8.874;2023-06-22T07:58:36;9.85;;;5.70;;
13685;SDS011;6915;48.296;8.874;2023-06-22T08:01:07;10.93;;;6.00;;
13685;SDS011;6915;48.296;8.874;2023-06-22T08:03:35;11.48;;;6.28;;
13685;SDS011;6915;48.296;8.874;2023-06-22T08:06:06;7.75;;;6.13;;
13685;SDS011;6915;48.296;8.874;2023-06-22T08:08:35;9.07;;;6.30;;
13685;SDS011;6915;48.296;8.874;2023-06-22T08:11:05;12.70;;;5.72;;
13685;SDS011;6915;48.296;8.874;2023-06-22T08:13:34;11.32;;;5.55;;
13685;SDS011;6915;48.296;8.874;2023-06-22T08:16:04;10.95;;;6.65;;
13685;SDS011;6915;48.296;8.874;2023-06-22T08:18:35;9.88;;;6.70;;
13685;SDS011;6915;48.296;8.874;2023-06-22T08:21:05;9.77;;;6.25;;
13685;SDS011;6915;48.296;8.874;2023-06-22T08:23:34;10.20;;;6.65;;
13685;SDS011;6915;48.296;8.874;2023-06-22T08:26:03;11.48;;;6.07;;
13685;SDS011;6915;48.296;8.874;2023-06-22T08:28:32;11.07;;;5.47;;
13685;SDS011;6915;48.296;8.874;2023-06-22T08:31:01;8.07;;;6.13;;
13685;SDS011;6915;48.296;8.874;2023-06-22T08:33:31;10.00;;;6.88;;
13685;SDS011;6915;48.296;8.874;2023-06-22T08:36:05;10.13;;;6.40;;
13685;SDS011;6915;48.296;8.874;2023-06-22T08:38:55;9.65;;;6.40;;
13685;SDS011;6915;48.296;8.874;2023-06-22T08:41:26;8.20;;;6.03;;
13685;SDS011;6915;48.296;8.874;2023-06-22T08:43:56;11.20;;;6.28;;
13685;SDS011;6915;48.296;8.874;2023-06-22T08:46:25;10.27;;;6.65;;
13685;SDS011;6915;48.296;8.874;2023-06-22T08:48:58;8.55;;;6.03;;
13685;SDS011;6915;48.296;8.874;2023-06-22T08:51:29;10.95;;;6.50;;
13685;SDS011;6915;48.296;8.874;2023-06-22T08:53:57;8.63;;;6.20;;
13685;SDS011;6915;48.296;8.874;2023-06-22T08:56:27;8.27;;;5.88;;
13685;SDS011;6915;48.296;8.874;2023-06-22T08:58:56;10.02;;;6.45;;
13685;SDS011;6915;48.296;8.874;2023-06-22T09:01:25;12.20;;;6.13;;
13685;SDS011;6915;48.296;8.874;2023-06-22T09:03:54;9.48;;;6.10;;
13685;SDS011;6915;48.296;8.874;2023-06-22T09:06:24;10.50;;;6.30;;
13685;SDS011;6915;48.296;8.874;2023-06-22T09:08:57;7.38;;;6.07;;
13685;SDS011;6915;48.296;8.874;2023-06-22T09:11:27;11.80;;;6.15;;
13685;SDS011;6915;48.296;8.874;2023-06-22T09:13:56;9.55;;;6.13;;
13685;SDS011;6915;48.296;8.874;2023-06-22T09:16:25;10.23;;;6.00;;
13685;SDS011;6915;48.296;8.874;2023-06-22T09:18:54;9.38;;;5.80;;
13685;SDS011;6915;48.296;8.874;2023-06-22T09:21:25;14.32;;;6.43;;
13685;SDS011;6915;48.296;8.874;2023-06-22T09:23:54;8.93;;;5.72;;
13685;SDS011;6915;48.296;8.874;2023-06-22T09:26:24;8.13;;;6.55;;
13685;SDS011;6915;48.296;8.874;2023-06-22T09:28:53;10.52;;;6.25;;
13685;SDS011;6915;48.296;8.874;2023-06-22T09:31:23;14.02;;;6.65;;
13685;SDS011;6915;48.296;8.874;2023-06-22T09:33:52;10.27;;;6.28;;
13685;SDS011;6915;48.296;8.874;2023-06-22T09:36:21;10.73;;;6.22;;
13685;SDS011;6915;48.296;8.874;2023-06-22T10:20:25;9.95;;;5.45;;
13685;SDS011;6915;48.296;8.874;2023-06-22T10:22:54;11.25;;;5.70;;
13685;SDS011;6915;48.296;8.874;2023-06-22T10:25:23;8.27;;;5.53;;
13685;SDS011;6915;48.296;8.874;2023-06-22T10:27:52;9.52;;;6.00;;
13685;SDS011;6915;48.296;8.874;2023-06-22T10:30:22;8.95;;;5.40;;
13685;SDS011;6915;48.296;8.874;2023-06-22T10:32:51;8.70;;;5.47;;
13685;SDS011;6915;48.296;8.874;2023-06-22T10:35:20;9.68;;;5.40;;
13685;SDS011;6915;48.296;8.874;2023-06-22T10:37:50;12.27;;;5.90;;
13685;SDS011;6915;48.296;8.874;2023-06-22T10:40:19;8.27;;;5.32;;
13685;SDS011;6915;48.296;8.874;2023-06-22T10:42:48;14.98;;;6.50;;
13685;SDS011;6915;48.296;8.874;2023-06-22T10:45:17;8.93;;;5.40;;
13685;SDS011;6915;48.296;8.874;2023-06-22T10:47:46;11.77;;;5.85;;
13685;SDS011;6915;48.296;8.874;2023-06-22T10:50:15;8.68;;;5.43;;
13685;SDS011;6915;48.296;8.874;2023-06-22T10:52:45;10.50;;;5.22;;
13685;SDS011;6915;48.296;8.874;2023-06-22T10:55:15;10.20;;;5.38;;
13685;SDS011;6915;48.296;8.874;2023-06-22T10:57:45;10.25;;;5.80;;
13685;SDS011;6915;48.296;8.874;2023-06-22T11:00:15;13.98;;;5.70;;
13685;SDS011;6915;48.296;8.874;2023-06-22T11:02:43;12.50;;;6.07;;
13685;SDS011;6915;48.296;8.874;2023-06-22T11:05:12;20.50;;;5.53;;
13685;SDS011;6915;48.296;8.874;2023-06-22T11:07:41;12.52;;;5.60;;
13685;SDS011;6915;48.296;8.874;2023-06-22T11:10:10;10.60;;;5.93;;
13685;SDS011;6915;48.296;8.874;2023-06-22T11:12:40;13.45;;;5.78;;
13685;SDS011;6915;48.296;8.874;2023-06-22T11:15:09;8.52;;;5.40;;
13685;SDS011;6915;48.296;8.874;2023-06-22T11:17:38;9.98;;;4.90;;
13685;SDS011;6915;48.296;8.874;2023-06-22T11:20:07;12.80;;;5.72;;
13685;SDS011;6915;48.296;8.874;2023-06-22T11:22:37;7.95;;;5.10;;
13685;SDS011;6915;48.296;8.874;2023-06-22T11:25:06;12.45;;;5.65;;
13685;SDS011;6915;48.296;8.874;2023-06-22T15:28:20;11.80;;;3.90;;
13685;SDS011;6915;48.296;8.874;2023-06-22T15:30:49;12.43;;;3.53;;
13685;SDS011;6915;48.296;8.874;2023-06-22T15:33:18;8.45;;;3.20;;
13685;SDS011;6915;48.296;8.874;2023-06-22T15:35:46;9.18;;;3.85;;
13685;SDS011;6915;48.296;8.874;2023-06-22T15:38:15;8.98;;;3.63;;
13685;SDS011;6915;48.296;8.874;2023-06-22T15:40:44;8.80;;;3.95;;
13685;SDS011;6915;48.296;8.874;2023-06-22T16:09:18;9.02;;;3.83;;
13685;SDS011;6915;48.296;8.874;2023-06-22T16:11:47;8.10;;;3.92;;
13685;SDS011;6915;48.296;8.874;2023-06-22T16:14:16;19.92;;;4.43;;
13685;SDS011;6915;48.296;8.874;2023-06-22T16:16:44;13.40;;;4.25;;
13685;SDS011;6915;48.296;8.874;2023-06-22T16:19:13;11.07;;;3.88;;
13685;SDS011;6915;48.296;8.874;2023-06-22T16:21:43;10.85;;;3.95;;
13685;SDS011;6915;48.296;8.874;2023-06-22T16:24:12;6.93;;;3.72;;
13685;SDS011;6915;48.296;8.874;2023-06-22T16:26:42;11.60;;;4.30;;
13685;SDS011;6915;48.296;8.874;2023-06-22T16:29:12;10.52;;;4.00;;
13685;SDS011;6915;48.296;8.874;2023-06-22T16:31:41;8.18;;;3.53;;
13685;SDS011;6915;48.296;8.874;2023-06-22T16:34:10;7.13;;;4.10;;
13685;SDS011;6915;48.296;8.874;2023-06-22T16:36:39;12.30;;;4.05;;
13685;SDS011;6915;48.296;8.874;2023-06-22T16:39:08;8.23;;;3.78;;
13685;SDS011;6915;48.296;8.874;2023-06-22T16:41:37;10.38;;;3.97;;
13685;SDS011;6915;48.296;8.874;2023-06-22T16:44:08;9.48;;;4.00;;
13685;SDS011;6915;48.296;8.874;2023-06-22T16:46:37;9.57;;;3.72;;
13685;SDS011;6915;48.296;8.874;2023-06-22T16:49:06;12.23;;;4.15;;
13685;SDS011;6915;48.296;8.874;2023-06-22T16:51:34;9.07;;;4.13;;
13685;SDS011;6915;48.296;8.874;2023-06-22T16:54:25;9.65;;;4.00;;
13685;SDS011;6915;48.296;8.874;2023-06-22T16:56:54;13.15;;;4.20;;
13685;SDS011;6915;48.296;8.874;2023-06-22T16:59:26;8.73;;;4.07;;
13685;SDS011;6915;48.296;8.874;2023-06-22T17:01:55;14.50;;;4.03;;
13685;SDS011;6915;48.296;8.874;2023-06-22T17:04:26;8.40;;;3.80;;
13685;SDS011;6915;48.296;8.874;2023-06-22T17:06:57;7.03;;;3.63;;
13685;SDS011;6915;48.296;8.874;2023-06-22T17:09:30;9.63;;;3.53;;
13685;SDS011;6915;48.296;8.874;2023-06-22T17:12:00;6.93;;;2.97;;
13685;SDS011;6915;48.296;8.874;2023-06-22T17:14:30;10.98;;;3.20;;
13685;SDS011;6915;48.296;8.874;2023-06-22T17:17:02;8.68;;;3.05;;
13685;SDS011;6915;48.296;8.874;2023-06-22T17:19:32;5.70;;;2.88;;
13685;SDS011;6915;48.296;8.874;2023-06-22T17:22:02;9.25;;;3.17;;
